sensor_id;sensor_type;location;lat;lon;timestamp;P1;durP1;ratioP1;P2;durP2;ratioP2
73699;SDS011;62005;50.082;8.988;2023-11-19T00:02:13;2.23;;;1.23;;
73699;SDS011;62005;50.082;8.988;2023-11-19T00:04:39;3.13;;;1.70;;
73699;SDS011;62005;50.082;8.988;2023-11-19T00:07:04;2.60;;;1.38;;
73699;SDS011;62005;50.082;8.988;2023-11-19T00:09:31;5.05;;;1.15;;
73699;SDS011;62005;50.082;8.988;2023-11-19T00:11:57;3.30;;;1.17;;
73699;SDS011;62005;50.082;8.988;2023-11-19T00:14:22;2.30;;;1.10;;
73699;SDS011;62005;50.082;8.988;2023-11-19T00:16:49;4.80;;;1.38;;
73699;SDS011;62005;50.082;8.988;2023-11-19T00:19:16;2.28;;;1.20;;
73699;SDS011;62005;50.082;8.988;2023-11-19T00:21:41;3.13;;;1.50;;
73699;SDS011;62005;50.082;8.988;2023-11-19T00:24:07;2.97;;;1.70;;
73699;SDS011;62005;50.082;8.988;2023-11-19T00:26:33;3.45;;;1.45;;
73699;SDS011;62005;50.082;8.988;2023-11-19T00:28:59;1.75;;;0.90;;
73699;SDS011;62005;50.082;8.988;2023-11-19T00:31:27;2.95;;;1.20;;
73699;SDS011;62005;50.082;8.988;2023-11-19T00:33:53;2.97;;;1.20;;
73699;SDS011;62005;50.082;8.988;2023-11-19T00:36:19;2.67;;;1.02;;
73699;SDS011;62005;50.082;8.988;2023-11-19T00:38:44;1.98;;;1.48;;
73699;SDS011;62005;50.082;8.988;2023-11-19T00:41:09;2.17;;;1.25;;
73699;SDS011;62005;50.082;8.988;2023-11-19T00:43:35;3.85;;;1.92;;
73699;SDS011;62005;50.082;8.988;2023-11-19T00:46:01;2.80;;;1.10;;
73699;SDS011;62005;50.082;8.988;2023-11-19T00:48:28;3.35;;;1.88;;
73699;SDS011;62005;50.082;8.988;2023-11-19T00:50:53;4.80;;;1.05;;
73699;SDS011;62005;50.082;8.988;2023-11-19T00:53:19;3.63;;;1.27;;
73699;SDS011;62005;50.082;8.988;2023-11-19T00:55:44;2.17;;;1.17;;
73699;SDS011;62005;50.082;8.988;2023-11-19T00:58:09;3.22;;;1.00;;
73699;SDS011;62005;50.082;8.988;2023-11-19T01:00:35;3.47;;;1.70;;
73699;SDS011;62005;50.082;8.988;2023-11-19T01:03:00;2.07;;;0.67;;
73699;SDS011;62005;50.082;8.988;2023-11-19T01:05:26;2.92;;;1.05;;
73699;SDS011;62005;50.082;8.988;2023-11-19T01:07:52;2.42;;;1.08;;
73699;SDS011;62005;50.082;8.988;2023-11-19T01:10:18;2.75;;;1.25;;
73699;SDS011;62005;50.082;8.988;2023-11-19T01:12:44;3.03;;;1.13;;
73699;SDS011;62005;50.082;8.988;2023-11-19T01:15:09;2.30;;;0.90;;
73699;SDS011;62005;50.082;8.988;2023-11-19T01:17:36;2.45;;;0.88;;
73699;SDS011;62005;50.082;8.988;2023-11-19T01:20:02;2.55;;;0.73;;
73699;SDS011;62005;50.082;8.988;2023-11-19T01:22:30;1.90;;;0.82;;
73699;SDS011;62005;50.082;8.988;2023-11-19T01:24:56;3.45;;;1.20;;
73699;SDS011;62005;50.082;8.988;2023-11-19T01:27:23;2.38;;;0.80;;
73699;SDS011;62005;50.082;8.988;2023-11-19T01:29:51;2.40;;;0.65;;
73699;SDS011;62005;50.082;8.988;2023-11-19T01:32:16;2.83;;;1.00;;
73699;SDS011;62005;50.082;8.988;2023-11-19T01:34:41;2.07;;;0.60;;
73699;SDS011;62005;50.082;8.988;2023-11-19T01:37:07;3.40;;;0.70;;
73699;SDS011;62005;50.082;8.988;2023-11-19T01:39:34;2.20;;;0.85;;
73699;SDS011;62005;50.082;8.988;2023-11-19T01:42:02;3.63;;;0.75;;
73699;SDS011;62005;50.082;8.988;2023-11-19T01:44:27;1.90;;;0.57;;
73699;SDS011;62005;50.082;8.988;2023-11-19T01:46:53;2.95;;;1.05;;
73699;SDS011;62005;50.082;8.988;2023-11-19T01:49:18;2.33;;;0.88;;
73699;SDS011;62005;50.082;8.988;2023-11-19T01:51:45;2.75;;;0.85;;
73699;SDS011;62005;50.082;8.988;2023-11-19T01:54:12;1.92;;;0.90;;
73699;SDS011;62005;50.082;8.988;2023-11-19T01:56:38;1.70;;;0.80;;
73699;SDS011;62005;50.082;8.988;2023-11-19T01:59:05;1.70;;;0.88;;
73699;SDS011;62005;50.082;8.988;2023-11-19T02:01:32;2.08;;;1.05;;
73699;SDS011;62005;50.082;8.988;2023-11-19T02:06:26;1.80;;;0.50;;
73699;SDS011;62005;50.082;8.988;2023-11-19T02:08:53;1.98;;;0.68;;
73699;SDS011;62005;50.082;8.988;2023-11-19T02:11:18;3.67;;;0.60;;
73699;SDS011;62005;50.082;8.988;2023-11-19T02:13:43;1.98;;;0.68;;
73699;SDS011;62005;50.082;8.988;2023-11-19T02:16:09;1.27;;;0.85;;
73699;SDS011;62005;50.082;8.988;2023-11-19T02:18:36;2.08;;;0.47;;
73699;SDS011;62005;50.082;8.988;2023-11-19T02:21:02;2.17;;;0.77;;
73699;SDS011;62005;50.082;8.988;2023-11-19T02:23:28;1.10;;;0.45;;
73699;SDS011;62005;50.082;8.988;2023-11-19T02:29:00;2.65;;;0.82;;
73699;SDS011;62005;50.082;8.988;2023-11-19T02:31:25;1.47;;;0.30;;
73699;SDS011;62005;50.082;8.988;2023-11-19T02:33:52;1.45;;;0.32;;
73699;SDS011;62005;50.082;8.988;2023-11-19T02:36:17;1.00;;;0.55;;
73699;SDS011;62005;50.082;8.988;2023-11-19T02:38:43;0.97;;;0.20;;
73699;SDS011;62005;50.082;8.988;2023-11-19T02:41:08;1.10;;;0.20;;
73699;SDS011;62005;50.082;8.988;2023-11-19T02:43:34;2.13;;;0.52;;
73699;SDS011;62005;50.082;8.988;2023-11-19T02:46:02;2.10;;;1.17;;
73699;SDS011;62005;50.082;8.988;2023-11-19T02:48:29;2.40;;;0.93;;
73699;SDS011;62005;50.082;8.988;2023-11-19T02:50:55;3.08;;;0.45;;
73699;SDS011;62005;50.082;8.988;2023-11-19T02:53:23;1.85;;;0.70;;
73699;SDS011;62005;50.082;8.988;2023-11-19T02:55:49;1.00;;;0.35;;
73699;SDS011;62005;50.082;8.988;2023-11-19T02:58:15;1.08;;;0.43;;
73699;SDS011;62005;50.082;8.988;2023-11-19T03:00:49;0.60;;;0.20;;
73699;SDS011;62005;50.082;8.988;2023-11-19T03:03:27;2.42;;;0.30;;
73699;SDS011;62005;50.082;8.988;2023-11-19T03:06:06;1.15;;;0.40;;
73699;SDS011;62005;50.082;8.988;2023-11-19T03:08:32;1.55;;;0.15;;
73699;SDS011;62005;50.082;8.988;2023-11-19T03:11:00;0.57;;;0.20;;
73699;SDS011;62005;50.082;8.988;2023-11-19T03:13:25;0.80;;;0.20;;
73699;SDS011;62005;50.082;8.988;2023-11-19T03:15:51;1.73;;;0.75;;
73699;SDS011;62005;50.082;8.988;2023-11-19T03:18:18;0.80;;;0.20;;
73699;SDS011;62005;50.082;8.988;2023-11-19T03:20:44;0.82;;;0.30;;
73699;SDS011;62005;50.082;8.988;2023-11-19T03:23:11;0.93;;;0.20;;
73699;SDS011;62005;50.082;8.988;2023-11-19T03:25:36;1.23;;;0.47;;
73699;SDS011;62005;50.082;8.988;2023-11-19T03:28:02;0.93;;;0.30;;
73699;SDS011;62005;50.082;8.988;2023-11-19T03:30:28;1.33;;;0.22;;
73699;SDS011;62005;50.082;8.988;2023-11-19T03:32:55;1.05;;;0.43;;
73699;SDS011;62005;50.082;8.988;2023-11-19T03:35:20;0.60;;;0.20;;
73699;SDS011;62005;50.082;8.988;2023-11-19T03:37:46;0.55;;;0.28;;
73699;SDS011;62005;50.082;8.988;2023-11-19T03:40:11;0.93;;;0.10;;
73699;SDS011;62005;50.082;8.988;2023-11-19T03:42:37;0.40;;;0.10;;
73699;SDS011;62005;50.082;8.988;2023-11-19T03:45:04;0.52;;;0.10;;
73699;SDS011;62005;50.082;8.988;2023-11-19T03:47:33;0.52;;;0.30;;
73699;SDS011;62005;50.082;8.988;2023-11-19T03:49:58;0.38;;;0.20;;
73699;SDS011;62005;50.082;8.988;2023-11-19T03:52:24;0.43;;;0.23;;
73699;SDS011;62005;50.082;8.988;2023-11-19T03:54:49;0.20;;;0.10;;
73699;SDS011;62005;50.082;8.988;2023-11-19T03:57:14;1.27;;;0.20;;
73699;SDS011;62005;50.082;8.988;2023-11-19T03:59:40;0.50;;;0.30;;
73699;SDS011;62005;50.082;8.988;2023-11-19T04:02:06;0.50;;;0.25;;
73699;SDS011;62005;50.082;8.988;2023-11-19T04:04:31;1.07;;;0.30;;
73699;SDS011;62005;50.082;8.988;2023-11-19T04:06:57;1.35;;;0.40;;
73699;SDS011;62005;50.082;8.988;2023-11-19T04:09:23;1.08;;;0.20;;
73699;SDS011;62005;50.082;8.988;2023-11-19T04:11:49;2.35;;;0.20;;
73699;SDS011;62005;50.082;8.988;2023-11-19T04:14:14;2.22;;;0.43;;
73699;SDS011;62005;50.082;8.988;2023-11-19T04:16:40;1.10;;;0.40;;
73699;SDS011;62005;50.082;8.988;2023-11-19T04:19:06;6.97;;;0.57;;
73699;SDS011;62005;50.082;8.988;2023-11-19T04:21:31;1.92;;;0.47;;
73699;SDS011;62005;50.082;8.988;2023-11-19T04:23:57;0.80;;;0.50;;
73699;SDS011;62005;50.082;8.988;2023-11-19T04:26:22;0.40;;;0.17;;
73699;SDS011;62005;50.082;8.988;2023-11-19T04:28:48;0.87;;;0.53;;
73699;SDS011;62005;50.082;8.988;2023-11-19T04:31:14;0.90;;;0.10;;
73699;SDS011;62005;50.082;8.988;2023-11-19T04:33:41;0.85;;;0.20;;
73699;SDS011;62005;50.082;8.988;2023-11-19T04:36:07;0.38;;;0.10;;
73699;SDS011;62005;50.082;8.988;2023-11-19T04:38:32;1.33;;;0.40;;
73699;SDS011;62005;50.082;8.988;2023-11-19T04:40:58;1.33;;;0.20;;
73699;SDS011;62005;50.082;8.988;2023-11-19T04:43:23;0.60;;;0.23;;
73699;SDS011;62005;50.082;8.988;2023-11-19T04:45:48;1.00;;;0.20;;
73699;SDS011;62005;50.082;8.988;2023-11-19T04:48:14;1.40;;;0.40;;
73699;SDS011;62005;50.082;8.988;2023-11-19T04:50:39;1.08;;;0.40;;
73699;SDS011;62005;50.082;8.988;2023-11-19T04:53:04;2.57;;;0.20;;
73699;SDS011;62005;50.082;8.988;2023-11-19T04:55:30;1.40;;;0.30;;
73699;SDS011;62005;50.082;8.988;2023-11-19T04:57:55;0.57;;;0.10;;
73699;SDS011;62005;50.082;8.988;2023-11-19T05:00:20;0.83;;;0.30;;
73699;SDS011;62005;50.082;8.988;2023-11-19T05:02:46;1.55;;;0.20;;
73699;SDS011;62005;50.082;8.988;2023-11-19T05:05:12;0.95;;;0.68;;
73699;SDS011;62005;50.082;8.988;2023-11-19T05:07:37;0.50;;;0.10;;
73699;SDS011;62005;50.082;8.988;2023-11-19T05:10:03;0.60;;;0.10;;
73699;SDS011;62005;50.082;8.988;2023-11-19T05:12:29;0.95;;;0.47;;
73699;SDS011;62005;50.082;8.988;2023-11-19T05:14:54;0.65;;;0.20;;
73699;SDS011;62005;50.082;8.988;2023-11-19T05:17:20;0.47;;;0.10;;
73699;SDS011;62005;50.082;8.988;2023-11-19T05:19:45;0.45;;;0.30;;
73699;SDS011;62005;50.082;8.988;2023-11-19T05:22:12;0.40;;;0.10;;
73699;SDS011;62005;50.082;8.988;2023-11-19T05:24:38;0.40;;;0.10;;
73699;SDS011;62005;50.082;8.988;2023-11-19T05:27:04;0.60;;;0.40;;
73699;SDS011;62005;50.082;8.988;2023-11-19T05:29:30;0.73;;;0.13;;
73699;SDS011;62005;50.082;8.988;2023-11-19T05:31:55;0.90;;;0.30;;
73699;SDS011;62005;50.082;8.988;2023-11-19T05:34:20;0.43;;;0.10;;
73699;SDS011;62005;50.082;8.988;2023-11-19T05:36:46;0.68;;;0.10;;
73699;SDS011;62005;50.082;8.988;2023-11-19T05:39:12;0.40;;;0.10;;
73699;SDS011;62005;50.082;8.988;2023-11-19T05:41:38;1.17;;;0.10;;
73699;SDS011;62005;50.082;8.988;2023-11-19T05:44:04;1.35;;;0.32;;
73699;SDS011;62005;50.082;8.988;2023-11-19T05:46:29;0.43;;;0.13;;
73699;SDS011;62005;50.082;8.988;2023-11-19T05:48:54;0.50;;;0.10;;
73699;SDS011;62005;50.082;8.988;2023-11-19T05:51:20;2.10;;;0.50;;
73699;SDS011;62005;50.082;8.988;2023-11-19T05:53:45;3.73;;;0.27;;
73699;SDS011;62005;50.082;8.988;2023-11-19T05:56:10;0.70;;;0.20;;
73699;SDS011;62005;50.082;8.988;2023-11-19T05:58:36;1.63;;;0.30;;
73699;SDS011;62005;50.082;8.988;2023-11-19T06:01:02;1.23;;;0.25;;
73699;SDS011;62005;50.082;8.988;2023-11-19T06:03:28;1.27;;;0.38;;
73699;SDS011;62005;50.082;8.988;2023-11-19T06:05:54;2.08;;;0.20;;
73699;SDS011;62005;50.082;8.988;2023-11-19T06:08:19;1.25;;;0.45;;
73699;SDS011;62005;50.082;8.988;2023-11-19T06:10:45;2.08;;;0.65;;
73699;SDS011;62005;50.082;8.988;2023-11-19T06:13:14;0.98;;;0.28;;
73699;SDS011;62005;50.082;8.988;2023-11-19T06:15:43;2.00;;;0.98;;
73699;SDS011;62005;50.082;8.988;2023-11-19T06:18:09;0.90;;;0.43;;
73699;SDS011;62005;50.082;8.988;2023-11-19T06:23:01;0.97;;;0.20;;
73699;SDS011;62005;50.082;8.988;2023-11-19T06:25:27;1.80;;;0.37;;
73699;SDS011;62005;50.082;8.988;2023-11-19T06:27:52;1.63;;;0.32;;
73699;SDS011;62005;50.082;8.988;2023-11-19T06:30:18;0.65;;;0.30;;
73699;SDS011;62005;50.082;8.988;2023-11-19T06:32:44;0.90;;;0.43;;
73699;SDS011;62005;50.082;8.988;2023-11-19T06:35:10;1.43;;;0.40;;
73699;SDS011;62005;50.082;8.988;2023-11-19T06:37:35;0.90;;;0.45;;
73699;SDS011;62005;50.082;8.988;2023-11-19T06:40:03;1.30;;;0.47;;
73699;SDS011;62005;50.082;8.988;2023-11-19T06:42:30;2.33;;;0.50;;
73699;SDS011;62005;50.082;8.988;2023-11-19T06:44:55;0.82;;;0.40;;
73699;SDS011;62005;50.082;8.988;2023-11-19T06:47:22;1.52;;;0.40;;
73699;SDS011;62005;50.082;8.988;2023-11-19T06:49:47;1.38;;;0.30;;
73699;SDS011;62005;50.082;8.988;2023-11-19T06:52:13;1.60;;;0.90;;
73699;SDS011;62005;50.082;8.988;2023-11-19T06:54:39;1.33;;;0.57;;
73699;SDS011;62005;50.082;8.988;2023-11-19T06:57:04;1.33;;;0.50;;
73699;SDS011;62005;50.082;8.988;2023-11-19T06:59:30;1.40;;;0.52;;
73699;SDS011;62005;50.082;8.988;2023-11-19T07:01:55;1.98;;;0.82;;
73699;SDS011;62005;50.082;8.988;2023-11-19T07:04:21;3.38;;;0.73;;
73699;SDS011;62005;50.082;8.988;2023-11-19T07:06:46;3.27;;;0.70;;
73699;SDS011;62005;50.082;8.988;2023-11-19T07:09:13;1.83;;;0.80;;
73699;SDS011;62005;50.082;8.988;2023-11-19T07:11:39;1.83;;;0.60;;
73699;SDS011;62005;50.082;8.988;2023-11-19T07:14:05;3.00;;;1.20;;
73699;SDS011;62005;50.082;8.988;2023-11-19T07:16:34;3.65;;;0.82;;
73699;SDS011;62005;50.082;8.988;2023-11-19T07:19:00;1.60;;;0.55;;
73699;SDS011;62005;50.082;8.988;2023-11-19T07:21:26;1.98;;;0.50;;
73699;SDS011;62005;50.082;8.988;2023-11-19T07:23:53;1.20;;;0.40;;
73699;SDS011;62005;50.082;8.988;2023-11-19T07:26:19;1.38;;;0.57;;
73699;SDS011;62005;50.082;8.988;2023-11-19T07:28:44;3.37;;;0.90;;
73699;SDS011;62005;50.082;8.988;2023-11-19T07:31:10;1.95;;;0.73;;
73699;SDS011;62005;50.082;8.988;2023-11-19T07:33:35;3.15;;;1.63;;
73699;SDS011;62005;50.082;8.988;2023-11-19T07:36:01;2.85;;;1.02;;
73699;SDS011;62005;50.082;8.988;2023-11-19T07:38:26;3.05;;;0.85;;
73699;SDS011;62005;50.082;8.988;2023-11-19T07:40:52;1.80;;;0.80;;
73699;SDS011;62005;50.082;8.988;2023-11-19T07:43:17;3.95;;;0.90;;
73699;SDS011;62005;50.082;8.988;2023-11-19T07:45:42;2.23;;;0.80;;
73699;SDS011;62005;50.082;8.988;2023-11-19T07:48:11;1.67;;;0.63;;
73699;SDS011;62005;50.082;8.988;2023-11-19T07:50:38;1.77;;;0.73;;
73699;SDS011;62005;50.082;8.988;2023-11-19T07:53:03;2.13;;;0.55;;
73699;SDS011;62005;50.082;8.988;2023-11-19T07:55:29;2.65;;;0.90;;
73699;SDS011;62005;50.082;8.988;2023-11-19T07:57:55;2.03;;;1.35;;
73699;SDS011;62005;50.082;8.988;2023-11-19T08:00:20;2.17;;;0.63;;
73699;SDS011;62005;50.082;8.988;2023-11-19T08:02:46;2.30;;;1.35;;
73699;SDS011;62005;50.082;8.988;2023-11-19T08:05:11;1.97;;;0.77;;
73699;SDS011;62005;50.082;8.988;2023-11-19T08:07:37;1.25;;;0.43;;
73699;SDS011;62005;50.082;8.988;2023-11-19T08:10:02;2.85;;;1.48;;
73699;SDS011;62005;50.082;8.988;2023-11-19T08:12:30;2.13;;;1.30;;
73699;SDS011;62005;50.082;8.988;2023-11-19T08:14:56;1.85;;;0.80;;
73699;SDS011;62005;50.082;8.988;2023-11-19T08:17:23;6.90;;;5.10;;
73699;SDS011;62005;50.082;8.988;2023-11-19T08:19:49;10.95;;;6.38;;
73699;SDS011;62005;50.082;8.988;2023-11-19T08:22:14;11.33;;;6.00;;
73699;SDS011;62005;50.082;8.988;2023-11-19T08:24:39;4.53;;;3.13;;
73699;SDS011;62005;50.082;8.988;2023-11-19T08:27:05;4.82;;;4.15;;
73699;SDS011;62005;50.082;8.988;2023-11-19T08:29:30;7.10;;;5.20;;
73699;SDS011;62005;50.082;8.988;2023-11-19T08:31:56;9.70;;;6.22;;
73699;SDS011;62005;50.082;8.988;2023-11-19T08:34:21;6.63;;;4.40;;
73699;SDS011;62005;50.082;8.988;2023-11-19T08:36:49;15.73;;;9.48;;
73699;SDS011;62005;50.082;8.988;2023-11-19T08:39:15;7.28;;;4.35;;
73699;SDS011;62005;50.082;8.988;2023-11-19T08:41:40;7.63;;;4.47;;
73699;SDS011;62005;50.082;8.988;2023-11-19T08:44:06;4.75;;;3.17;;
73699;SDS011;62005;50.082;8.988;2023-11-19T08:46:32;4.32;;;1.80;;
73699;SDS011;62005;50.082;8.988;2023-11-19T08:48:57;3.67;;;1.30;;
73699;SDS011;62005;50.082;8.988;2023-11-19T08:51:23;2.28;;;1.02;;
73699;SDS011;62005;50.082;8.988;2023-11-19T08:53:50;1.63;;;0.80;;
73699;SDS011;62005;50.082;8.988;2023-11-19T08:56:15;3.27;;;1.23;;
73699;SDS011;62005;50.082;8.988;2023-11-19T08:58:40;4.23;;;1.40;;
73699;SDS011;62005;50.082;8.988;2023-11-19T09:01:05;3.73;;;1.10;;
73699;SDS011;62005;50.082;8.988;2023-11-19T09:03:31;3.13;;;0.83;;
73699;SDS011;62005;50.082;8.988;2023-11-19T09:05:57;2.60;;;0.80;;
73699;SDS011;62005;50.082;8.988;2023-11-19T09:08:22;3.57;;;1.97;;
73699;SDS011;62005;50.082;8.988;2023-11-19T09:10:47;3.33;;;1.40;;
73699;SDS011;62005;50.082;8.988;2023-11-19T09:13:13;5.05;;;1.98;;
73699;SDS011;62005;50.082;8.988;2023-11-19T09:15:38;4.00;;;2.38;;
73699;SDS011;62005;50.082;8.988;2023-11-19T09:18:03;4.67;;;2.80;;
73699;SDS011;62005;50.082;8.988;2023-11-19T09:20:29;5.00;;;2.60;;
73699;SDS011;62005;50.082;8.988;2023-11-19T09:23:02;11.15;;;5.30;;
73699;SDS011;62005;50.082;8.988;2023-11-19T09:25:28;7.05;;;3.15;;
73699;SDS011;62005;50.082;8.988;2023-11-19T09:27:53;6.18;;;3.63;;
73699;SDS011;62005;50.082;8.988;2023-11-19T09:30:19;6.37;;;2.77;;
73699;SDS011;62005;50.082;8.988;2023-11-19T09:32:44;7.03;;;3.17;;
73699;SDS011;62005;50.082;8.988;2023-11-19T09:35:09;4.73;;;2.67;;
73699;SDS011;62005;50.082;8.988;2023-11-19T09:37:38;3.92;;;1.92;;
73699;SDS011;62005;50.082;8.988;2023-11-19T09:40:04;3.67;;;1.48;;
73699;SDS011;62005;50.082;8.988;2023-11-19T09:42:31;5.90;;;1.60;;
73699;SDS011;62005;50.082;8.988;2023-11-19T09:45:09;4.50;;;0.80;;
73699;SDS011;62005;50.082;8.988;2023-11-19T09:47:40;4.85;;;1.23;;
73699;SDS011;62005;50.082;8.988;2023-11-19T09:50:08;3.88;;;1.08;;
73699;SDS011;62005;50.082;8.988;2023-11-19T09:52:34;4.80;;;1.15;;
73699;SDS011;62005;50.082;8.988;2023-11-19T09:55:00;2.97;;;1.03;;
73699;SDS011;62005;50.082;8.988;2023-11-19T09:57:25;2.38;;;0.75;;
73699;SDS011;62005;50.082;8.988;2023-11-19T09:59:52;1.60;;;0.52;;
73699;SDS011;62005;50.082;8.988;2023-11-19T10:02:19;4.13;;;0.85;;
73699;SDS011;62005;50.082;8.988;2023-11-19T10:04:45;2.55;;;0.50;;
73699;SDS011;62005;50.082;8.988;2023-11-19T10:07:12;4.30;;;1.08;;
73699;SDS011;62005;50.082;8.988;2023-11-19T10:09:37;4.53;;;0.50;;
73699;SDS011;62005;50.082;8.988;2023-11-19T10:12:03;6.60;;;0.47;;
73699;SDS011;62005;50.082;8.988;2023-11-19T10:14:28;4.47;;;0.50;;
73699;SDS011;62005;50.082;8.988;2023-11-19T10:16:56;2.20;;;0.40;;
73699;SDS011;62005;50.082;8.988;2023-11-19T10:19:22;3.70;;;0.60;;
73699;SDS011;62005;50.082;8.988;2023-11-19T10:21:48;2.42;;;0.63;;
73699;SDS011;62005;50.082;8.988;2023-11-19T10:24:13;2.70;;;0.52;;
73699;SDS011;62005;50.082;8.988;2023-11-19T10:26:39;5.35;;;0.40;;
73699;SDS011;62005;50.082;8.988;2023-11-19T10:29:05;2.50;;;0.50;;
73699;SDS011;62005;50.082;8.988;2023-11-19T10:31:30;1.03;;;0.20;;
73699;SDS011;62005;50.082;8.988;2023-11-19T10:33:56;2.17;;;0.10;;
73699;SDS011;62005;50.082;8.988;2023-11-19T10:36:22;4.05;;;0.40;;
73699;SDS011;62005;50.082;8.988;2023-11-19T10:38:55;4.03;;;0.20;;
73699;SDS011;62005;50.082;8.988;2023-11-19T10:41:28;3.63;;;0.40;;
73699;SDS011;62005;50.082;8.988;2023-11-19T10:43:54;3.50;;;0.30;;
73699;SDS011;62005;50.082;8.988;2023-11-19T10:46:19;3.83;;;0.47;;
73699;SDS011;62005;50.082;8.988;2023-11-19T10:48:48;2.92;;;0.38;;
73699;SDS011;62005;50.082;8.988;2023-11-19T10:51:13;2.33;;;0.30;;
73699;SDS011;62005;50.082;8.988;2023-11-19T10:53:48;4.53;;;0.22;;
73699;SDS011;62005;50.082;8.988;2023-11-19T10:56:15;3.75;;;0.20;;
73699;SDS011;62005;50.082;8.988;2023-11-19T10:58:44;1.45;;;0.20;;
73699;SDS011;62005;50.082;8.988;2023-11-19T11:01:13;3.63;;;0.15;;
73699;SDS011;62005;50.082;8.988;2023-11-19T11:03:43;3.40;;;0.32;;
73699;SDS011;62005;50.082;8.988;2023-11-19T11:06:11;2.72;;;0.13;;
73699;SDS011;62005;50.082;8.988;2023-11-19T11:08:38;4.50;;;0.50;;
73699;SDS011;62005;50.082;8.988;2023-11-19T11:11:04;5.20;;;0.47;;
73699;SDS011;62005;50.082;8.988;2023-11-19T11:13:31;6.80;;;0.80;;
73699;SDS011;62005;50.082;8.988;2023-11-19T11:15:56;3.83;;;0.43;;
73699;SDS011;62005;50.082;8.988;2023-11-19T11:18:25;4.30;;;0.38;;
73699;SDS011;62005;50.082;8.988;2023-11-19T11:21:02;4.38;;;0.20;;
73699;SDS011;62005;50.082;8.988;2023-11-19T11:23:47;1.92;;;0.35;;
73699;SDS011;62005;50.082;8.988;2023-11-19T11:37:56;7.88;;;0.22;;
73699;SDS011;62005;50.082;8.988;2023-11-19T11:40:26;7.97;;;0.55;;
73699;SDS011;62005;50.082;8.988;2023-11-19T11:42:52;3.67;;;0.20;;
73699;SDS011;62005;50.082;8.988;2023-11-19T11:45:18;3.30;;;0.70;;
73699;SDS011;62005;50.082;8.988;2023-11-19T11:50:19;5.80;;;0.55;;
73699;SDS011;62005;50.082;8.988;2023-11-19T11:55:23;8.40;;;2.08;;
73699;SDS011;62005;50.082;8.988;2023-11-19T11:58:12;5.38;;;1.40;;
73699;SDS011;62005;50.082;8.988;2023-11-19T12:00:40;8.03;;;0.90;;
73699;SDS011;62005;50.082;8.988;2023-11-19T12:03:07;7.32;;;1.75;;
73699;SDS011;62005;50.082;8.988;2023-11-19T12:05:33;6.30;;;1.40;;
73699;SDS011;62005;50.082;8.988;2023-11-19T12:08:04;4.53;;;0.45;;
73699;SDS011;62005;50.082;8.988;2023-11-19T12:10:34;8.80;;;1.58;;
73699;SDS011;62005;50.082;8.988;2023-11-19T12:13:03;4.40;;;0.80;;
73699;SDS011;62005;50.082;8.988;2023-11-19T12:15:32;5.18;;;0.50;;
73699;SDS011;62005;50.082;8.988;2023-11-19T12:17:58;13.13;;;2.63;;
73699;SDS011;62005;50.082;8.988;2023-11-19T12:20:23;5.50;;;0.73;;
73699;SDS011;62005;50.082;8.988;2023-11-19T12:22:50;13.48;;;2.35;;
73699;SDS011;62005;50.082;8.988;2023-11-19T12:25:17;9.85;;;1.73;;
73699;SDS011;62005;50.082;8.988;2023-11-19T12:27:45;6.90;;;1.20;;
73699;SDS011;62005;50.082;8.988;2023-11-19T12:30:21;8.25;;;3.28;;
73699;SDS011;62005;50.082;8.988;2023-11-19T12:32:48;7.57;;;1.75;;
73699;SDS011;62005;50.082;8.988;2023-11-19T12:35:14;7.60;;;1.65;;
73699;SDS011;62005;50.082;8.988;2023-11-19T12:37:40;6.97;;;2.50;;
73699;SDS011;62005;50.082;8.988;2023-11-19T12:40:26;7.95;;;1.10;;
73699;SDS011;62005;50.082;8.988;2023-11-19T12:42:54;7.95;;;2.35;;
73699;SDS011;62005;50.082;8.988;2023-11-19T12:45:20;9.88;;;2.92;;
73699;SDS011;62005;50.082;8.988;2023-11-19T12:47:46;9.18;;;3.40;;
73699;SDS011;62005;50.082;8.988;2023-11-19T12:50:13;7.30;;;2.50;;
73699;SDS011;62005;50.082;8.988;2023-11-19T12:52:39;6.47;;;1.90;;
73699;SDS011;62005;50.082;8.988;2023-11-19T12:55:05;4.38;;;0.90;;
73699;SDS011;62005;50.082;8.988;2023-11-19T12:57:48;7.60;;;1.58;;
73699;SDS011;62005;50.082;8.988;2023-11-19T13:00:21;5.38;;;1.00;;
73699;SDS011;62005;50.082;8.988;2023-11-19T13:02:51;3.63;;;0.40;;
73699;SDS011;62005;50.082;8.988;2023-11-19T13:05:33;4.20;;;0.47;;
73699;SDS011;62005;50.082;8.988;2023-11-19T13:10:28;3.70;;;0.40;;
73699;SDS011;62005;50.082;8.988;2023-11-19T13:13:07;8.38;;;1.13;;
73699;SDS011;62005;50.082;8.988;2023-11-19T13:15:33;3.83;;;0.30;;
73699;SDS011;62005;50.082;8.988;2023-11-19T13:18:00;6.47;;;1.17;;
73699;SDS011;62005;50.082;8.988;2023-11-19T13:22:59;4.95;;;0.73;;
73699;SDS011;62005;50.082;8.988;2023-11-19T13:25:26;4.53;;;0.40;;
73699;SDS011;62005;50.082;8.988;2023-11-19T13:27:52;5.70;;;0.70;;
73699;SDS011;62005;50.082;8.988;2023-11-19T13:30:18;1.90;;;0.40;;
73699;SDS011;62005;50.082;8.988;2023-11-19T13:32:43;5.15;;;0.63;;
73699;SDS011;62005;50.082;8.988;2023-11-19T13:35:12;3.90;;;0.38;;
73699;SDS011;62005;50.082;8.988;2023-11-19T13:37:38;5.03;;;0.50;;
73699;SDS011;62005;50.082;8.988;2023-11-19T13:40:04;4.93;;;0.50;;
73699;SDS011;62005;50.082;8.988;2023-11-19T13:42:31;6.47;;;0.45;;
73699;SDS011;62005;50.082;8.988;2023-11-19T13:44:59;5.25;;;0.60;;
73699;SDS011;62005;50.082;8.988;2023-11-19T13:47:25;7.32;;;0.52;;
73699;SDS011;62005;50.082;8.988;2023-11-19T13:49:51;7.60;;;0.60;;
73699;SDS011;62005;50.082;8.988;2023-11-19T13:52:17;8.48;;;0.70;;
73699;SDS011;62005;50.082;8.988;2023-11-19T13:54:43;5.17;;;0.50;;
73699;SDS011;62005;50.082;8.988;2023-11-19T13:57:08;5.53;;;0.57;;
73699;SDS011;62005;50.082;8.988;2023-11-19T13:59:33;6.28;;;0.50;;
73699;SDS011;62005;50.082;8.988;2023-11-19T14:02:05;7.32;;;0.63;;
73699;SDS011;62005;50.082;8.988;2023-11-19T14:04:32;4.18;;;0.32;;
73699;SDS011;62005;50.082;8.988;2023-11-19T14:06:58;5.97;;;0.40;;
73699;SDS011;62005;50.082;8.988;2023-11-19T14:09:23;2.60;;;0.23;;
73699;SDS011;62005;50.082;8.988;2023-11-19T14:11:48;5.67;;;0.50;;
73699;SDS011;62005;50.082;8.988;2023-11-19T14:14:16;2.75;;;0.20;;
73699;SDS011;62005;50.082;8.988;2023-11-19T14:16:41;4.35;;;0.25;;
73699;SDS011;62005;50.082;8.988;2023-11-19T14:19:07;5.20;;;0.33;;
73699;SDS011;62005;50.082;8.988;2023-11-19T14:21:32;5.57;;;0.70;;
73699;SDS011;62005;50.082;8.988;2023-11-19T14:23:57;3.40;;;0.22;;
73699;SDS011;62005;50.082;8.988;2023-11-19T14:26:23;3.38;;;0.38;;
73699;SDS011;62005;50.082;8.988;2023-11-19T14:28:49;6.72;;;0.60;;
73699;SDS011;62005;50.082;8.988;2023-11-19T14:31:14;2.10;;;0.10;;
73699;SDS011;62005;50.082;8.988;2023-11-19T14:33:39;4.67;;;0.17;;
73699;SDS011;62005;50.082;8.988;2023-11-19T14:36:05;3.87;;;0.10;;
73699;SDS011;62005;50.082;8.988;2023-11-19T14:40:57;5.63;;;0.30;;
73699;SDS011;62005;50.082;8.988;2023-11-19T14:43:24;7.35;;;0.40;;
73699;SDS011;62005;50.082;8.988;2023-11-19T14:45:50;4.70;;;1.08;;
73699;SDS011;62005;50.082;8.988;2023-11-19T14:48:15;5.07;;;0.32;;
73699;SDS011;62005;50.082;8.988;2023-11-19T14:50:42;3.28;;;0.22;;
73699;SDS011;62005;50.082;8.988;2023-11-19T14:55:34;3.47;;;0.70;;
73699;SDS011;62005;50.082;8.988;2023-11-19T14:58:00;3.50;;;0.73;;
73699;SDS011;62005;50.082;8.988;2023-11-19T15:00:25;4.13;;;0.30;;
73699;SDS011;62005;50.082;8.988;2023-11-19T15:02:51;4.68;;;0.43;;
73699;SDS011;62005;50.082;8.988;2023-11-19T15:05:16;6.50;;;0.70;;
73699;SDS011;62005;50.082;8.988;2023-11-19T15:07:41;4.40;;;0.50;;
73699;SDS011;62005;50.082;8.988;2023-11-19T15:10:07;3.40;;;0.63;;
73699;SDS011;62005;50.082;8.988;2023-11-19T15:12:35;6.13;;;0.40;;
73699;SDS011;62005;50.082;8.988;2023-11-19T15:15:10;4.22;;;0.80;;
73699;SDS011;62005;50.082;8.988;2023-11-19T15:17:38;4.68;;;0.63;;
73699;SDS011;62005;50.082;8.988;2023-11-19T15:20:04;5.03;;;0.40;;